Have a Safe July 4th! 

Flight Track Log - Related Links

Times and Time Zones

All times are in EDT time to prevent confusion due to time zone crossing. See the JIA2233 flight status page for this flight to view local times or setup timezone preferences in your user account.

Time Position Orientation Groundspeed Altitude Reporting Facility
EDT Latitude Longitude Course Direction KTS MPH feet Rate Location/Type
Thu 09:30:07 AM 35.1911 -80.9508 246° West 175 201 1,400  Level Atlanta Center
Thu 09:31:15 AM 35.1353 -80.9683 194° South 220 253 3,100 1,398 Climbing Atlanta Center
Thu 09:31:50 AM 35.1325 -81.0267 267° West 273 314 3,800 2,147 Climbing Atlanta Center
Thu 09:32:00 AM 35.2595 -81.2198 199° South  Level FlightAware Approximate
Thu 09:32:50 AM 35.1306 -81.1158 268° West 281 323 6,500  Level Atlanta Center
Thu 09:33:00 AM 35.1486 -81.2670 192° South  Level FlightAware Approximate
Thu 09:33:50 AM 35.1286 -81.2147 269° West 308 354 9,100  Level Atlanta Center
Thu 09:34:00 AM 35.0666 -81.3420 251° West  Level FlightAware Approximate
Thu 09:34:50 AM 35.0847 -81.3025 239° Southwest 285 328 11,300  Level Atlanta Center
Thu 09:35:00 AM 35.0228 -81.4749 246° West  Level FlightAware Approximate
Thu 09:35:50 AM 35.0536 -81.4025 249° West 327 376 12,200  Level Atlanta Center
Thu 09:36:50 AM 35.0164 -81.5178 249° West 356 410 14,100 1,900 Climbing Atlanta Center
Thu 09:37:50 AM 34.9814 -81.6406 251° West 378 435 16,000 1,800 Climbing Atlanta Center
Thu 09:38:50 AM 34.9439 -81.7608 249° West 378 435 17,700 1,500 Climbing Atlanta Center
Thu 09:39:50 AM 34.8897 -81.8761 240° Southwest 383 441 19,000 1,300 Climbing Atlanta Center
Thu 09:40:50 AM 34.8228 -81.9994 237° Southwest 399 459 20,300 1,300 Climbing Atlanta Center
Thu 09:41:50 AM 34.7581 -82.1172 236° Southwest 413 475 21,600 1,450 Climbing Atlanta Center
Thu 09:42:50 AM 34.6908 -82.2325 235° Southwest 418 481 23,200 1,350 Climbing Atlanta Center
Thu 09:43:50 AM 34.6258 -82.3450 235° Southwest 418 481 24,300 1,050 Climbing Atlanta Center
Thu 09:44:50 AM 34.5647 -82.4572 237° Southwest 430 495 25,300 1,000 Climbing Atlanta Center
Thu 09:45:50 AM 34.4950 -82.5719 234° Southwest 430 495 26,300 1,050 Climbing Atlanta Center
Thu 09:46:50 AM 34.4172 -82.7067 235° Southwest 437 503 27,400 850 Climbing Atlanta Center
Thu 09:47:50 AM 34.3433 -82.8286 234° Southwest 443 510 28,000 300 Climbing Atlanta Center
Thu 09:48:50 AM 34.2717 -82.9528 235° Southwest 449 517 28,000  Level Atlanta Center
Thu 09:49:50 AM 34.1975 -83.0819 235° Southwest 459 528 28,000  Level Atlanta Center
Thu 09:50:50 AM 34.1211 -83.2108 234° Southwest 464 534 28,000  Level Atlanta Center
Thu 09:51:50 AM 34.0572 -83.3217 235° Southwest 470 541 28,000  Level Atlanta Center
Thu 09:52:50 AM 33.9847 -83.4475 235° Southwest 470 541 28,000  Level Atlanta Center
Thu 09:53:50 AM 33.9122 -83.5658 234° Southwest 454 522 28,000  Level Atlanta Center
Thu 09:54:50 AM 33.8458 -83.6861 236° Southwest 448 516 28,000  Level Atlanta Center
Thu 09:55:50 AM 33.8044 -83.8214 250° West 434 499 28,000  Level Atlanta Center
Thu 09:56:50 AM 33.7650 -83.9589 251° West 434 499 28,000  Level Atlanta Center
Thu 09:57:50 AM 33.7567 -84.1139 266° West 429 494 28,000 -500 Level Atlanta Center
Thu 09:58:50 AM 33.7544 -84.2611 269° West 435 501 27,000 -1,000 Descending Atlanta Center
Thu 09:59:50 AM 33.7561 -84.4111 271° West 445 512 26,000 -950 Descending Atlanta Center
Thu 10:00:50 AM 33.7494 -84.5558 267° West 461 531 25,100 -950 Descending Atlanta Center
Thu 10:01:50 AM 33.7467 -84.7033 269° West 467 537 24,100 -550 Descending Atlanta Center
Thu 10:02:50 AM 33.7436 -84.8508 269° West 456 525 24,000 -50 Descending Atlanta Center
Thu 10:03:50 AM 33.7406 -84.9906 269° West 432 497 24,000 -750 Level Atlanta Center
Thu 10:04:50 AM 33.7350 -85.1328 267° West 427 491 22,500 -1,500 Descending Atlanta Center
Thu 10:05:50 AM 33.7317 -85.2678 268° West 414 476 21,000 -1,550 Descending Atlanta Center
Thu 10:06:50 AM 33.7281 -85.4150 268° West 408 470 19,400 -1,550 Descending Atlanta Center
Thu 10:07:50 AM 33.7225 -85.5472 267° West 403 464 17,900 -1,678 Descending Atlanta Center
Thu 10:08:48 AM 33.7019 -85.6719 259° West 397 457 16,100 -1,831 Descending Atlanta Center
Thu 10:09:48 AM 33.6858 -85.7939 261° West 381 438 14,300 -1,770 Descending Atlanta Center
Thu 10:10:50 AM 33.6756 -85.9233 265° West 381 438 12,500 -1,574 Descending Atlanta Center
Thu 10:11:50 AM 33.6547 -86.0428 258° West 376 433 11,100 -750 Descending Atlanta Center
Thu 10:12:50 AM 33.6425 -86.1547 263° West 363 418 11,000 -50 Descending Atlanta Center
Thu 10:13:50 AM 33.6278 -86.2742 262° West 356 410 11,000 -300 Level Atlanta Center
Thu 10:14:50 AM 33.6114 -86.3811 260° West 349 402 10,400 -1,300 Descending Atlanta Center
Thu 10:15:50 AM 33.5989 -86.4756 261° West 322 371 8,400 -2,250 Descending Atlanta Center
Thu 10:16:50 AM 33.5806 -86.5647 256° West 295 339 5,900 -1,700 Descending Atlanta Center
Thu 10:17:50 AM 33.5331 -86.6356 231° Southwest 270 311 5,000 -1,176 Descending Atlanta Center
Thu 10:19:18 AM 33.4642 -86.7406 232° Southwest 256 295 3,000 -1,364 Descending Atlanta Center

Login

Don't have an account? Register now (free) for customized features, flight alerts, and more!